sensor_id;sensor_type;location;lat;lon;timestamp;pressure;altitude;pressure_sealevel;temperature;humidity
11172;BME280;5642;50.830;12.082;2022-12-18T00:01:30;100963.00;;;-3.81;41.68
11172;BME280;5642;50.830;12.082;2022-12-18T00:04:03;100973.16;;;-3.82;42.71
11172;BME280;5642;50.830;12.082;2022-12-18T00:06:35;100968.41;;;-3.92;42.65
11172;BME280;5642;50.830;12.082;2022-12-18T00:09:03;100930.69;;;-4.29;42.72
11172;BME280;5642;50.830;12.082;2022-12-18T00:11:31;100972.50;;;-4.12;42.51
11172;BME280;5642;50.830;12.082;2022-12-18T00:14:03;100985.34;;;-4.11;42.67
11172;BME280;5642;50.830;12.082;2022-12-18T00:16:31;100986.91;;;-4.14;42.23
11172;BME280;5642;50.830;12.082;2022-12-18T00:19:04;100975.06;;;-4.28;42.96
11172;BME280;5642;50.830;12.082;2022-12-18T00:21:32;100950.13;;;-4.49;42.77
11172;BME280;5642;50.830;12.082;2022-12-18T00:24:00;100988.66;;;-4.29;42.92
11172;BME280;5642;50.830;12.082;2022-12-18T00:26:30;100989.22;;;-4.35;43.01
11172;BME280;5642;50.830;12.082;2022-12-18T00:29:13;100983.78;;;-4.41;43.33
11172;BME280;5642;50.830;12.082;2022-12-18T00:31:42;100978.72;;;-4.56;42.62
11172;BME280;5642;50.830;12.082;2022-12-18T00:34:12;100993.97;;;-4.57;43.06
11172;BME280;5642;50.830;12.082;2022-12-18T00:36:40;100996.81;;;-4.67;42.46
11172;BME280;5642;50.830;12.082;2022-12-18T00:39:18;101001.38;;;-4.78;43.20
11172;BME280;5642;50.830;12.082;2022-12-18T00:41:45;100995.97;;;-4.83;42.60
11172;BME280;5642;50.830;12.082;2022-12-18T00:44:32;100984.28;;;-4.94;42.90
11172;BME280;5642;50.830;12.082;2022-12-18T00:47:01;100975.41;;;-5.00;43.09
11172;BME280;5642;50.830;12.082;2022-12-18T00:49:28;100996.28;;;-4.93;42.83
11172;BME280;5642;50.830;12.082;2022-12-18T00:51:56;101003.72;;;-4.81;42.56
11172;BME280;5642;50.830;12.082;2022-12-18T00:54:24;101001.50;;;-4.75;42.81
11172;BME280;5642;50.830;12.082;2022-12-18T00:56:49;101006.34;;;-4.65;42.39
11172;BME280;5642;50.830;12.082;2022-12-18T00:59:18;100989.69;;;-4.73;42.62
11172;BME280;5642;50.830;12.082;2022-12-18T01:01:45;101011.78;;;-4.59;42.86
11172;BME280;5642;50.830;12.082;2022-12-18T01:04:15;100996.28;;;-4.62;42.39
11172;BME280;5642;50.830;12.082;2022-12-18T01:06:42;100973.47;;;-4.74;42.65
11172;BME280;5642;50.830;12.082;2022-12-18T01:09:09;101002.44;;;-4.58;42.46
11172;BME280;5642;50.830;12.082;2022-12-18T01:11:37;101006.56;;;-4.60;42.61
11172;BME280;5642;50.830;12.082;2022-12-18T01:14:06;100987.31;;;-4.70;42.48
11172;BME280;5642;50.830;12.082;2022-12-18T01:16:33;100984.81;;;-4.68;42.55
11172;BME280;5642;50.830;12.082;2022-12-18T01:19:01;100973.47;;;-4.74;42.63
11172;BME280;5642;50.830;12.082;2022-12-18T01:21:29;101006.38;;;-4.49;42.57
11172;BME280;5642;50.830;12.082;2022-12-18T01:23:57;100997.22;;;-4.60;42.23
11172;BME280;5642;50.830;12.082;2022-12-18T01:26:25;101016.34;;;-4.53;42.53
11172;BME280;5642;50.830;12.082;2022-12-18T01:28:56;101015.41;;;-4.55;42.75
11172;BME280;5642;50.830;12.082;2022-12-18T01:31:26;101030.09;;;-4.51;42.89
11172;BME280;5642;50.830;12.082;2022-12-18T01:33:53;101020.97;;;-4.62;42.52
11172;BME280;5642;50.830;12.082;2022-12-18T01:36:27;101033.59;;;-4.65;42.99
11172;BME280;5642;50.830;12.082;2022-12-18T01:39:03;101041.34;;;-4.64;42.54
11172;BME280;5642;50.830;12.082;2022-12-18T01:41:33;101043.25;;;-4.60;42.53
11172;BME280;5642;50.830;12.082;2022-12-18T01:48:07;101027.16;;;-4.74;42.75
11172;BME280;5642;50.830;12.082;2022-12-18T01:50:40;101045.91;;;-4.58;42.43
11172;BME280;5642;50.830;12.082;2022-12-18T01:53:16;101053.03;;;-4.53;42.66
11172;BME280;5642;50.830;12.082;2022-12-18T01:55:55;101048.78;;;-4.52;42.83
11172;BME280;5642;50.830;12.082;2022-12-18T01:58:43;101055.84;;;-4.48;42.79
11172;BME280;5642;50.830;12.082;2022-12-18T02:01:10;100995.97;;;-4.83;42.79
11172;BME280;5642;50.830;12.082;2022-12-18T02:03:37;101052.47;;;-4.47;42.25
11172;BME280;5642;50.830;12.082;2022-12-18T02:06:09;101056.00;;;-4.45;42.52
11172;BME280;5642;50.830;12.082;2022-12-18T02:08:46;101052.56;;;-4.46;42.93
11172;BME280;5642;50.830;12.082;2022-12-18T02:14:11;101044.91;;;-4.46;42.62
11172;BME280;5642;50.830;12.082;2022-12-18T02:17:20;101043.69;;;-4.52;42.83
11172;BME280;5642;50.830;12.082;2022-12-18T02:20:20;101040.69;;;-4.60;42.61
11172;BME280;5642;50.830;12.082;2022-12-18T02:26:29;101045.69;;;-4.78;42.66
11172;BME280;5642;50.830;12.082;2022-12-18T02:29:05;101025.19;;;-4.94;42.68
11172;BME280;5642;50.830;12.082;2022-12-18T02:31:37;101043.94;;;-4.79;42.91
11172;BME280;5642;50.830;12.082;2022-12-18T02:34:09;101039.63;;;-4.80;43.13
11172;BME280;5642;50.830;12.082;2022-12-18T02:36:40;101008.88;;;-4.96;42.39
11172;BME280;5642;50.830;12.082;2022-12-18T02:39:10;101028.41;;;-4.82;42.68
11172;BME280;5642;50.830;12.082;2022-12-18T02:42:12;101037.94;;;-4.79;42.29
11172;BME280;5642;50.830;12.082;2022-12-18T03:11:31;101032.97;;;-5.36;43.21
11172;BME280;5642;50.830;12.082;2022-12-18T03:18:40;101024.25;;;-5.40;42.77
11172;BME280;5642;50.830;12.082;2022-12-18T03:28:20;101039.75;;;-5.37;42.97
11172;BME280;5642;50.830;12.082;2022-12-18T03:37:52;101044.16;;;-5.34;42.77
11172;BME280;5642;50.830;12.082;2022-12-18T03:51:05;101057.72;;;-5.21;42.27
11172;BME280;5642;50.830;12.082;2022-12-18T03:54:33;101022.31;;;-5.44;42.63
11172;BME280;5642;50.830;12.082;2022-12-18T04:12:15;101078.13;;;-5.65;42.94
11172;BME280;5642;50.830;12.082;2022-12-18T04:15:00;101080.56;;;-5.66;42.58
11172;BME280;5642;50.830;12.082;2022-12-18T04:17:42;101071.78;;;-5.71;42.77
11172;BME280;5642;50.830;12.082;2022-12-18T04:20:43;101090.34;;;-5.59;42.46
11172;BME280;5642;50.830;12.082;2022-12-18T04:34:08;101063.19;;;-5.86;42.94
11172;BME280;5642;50.830;12.082;2022-12-18T04:36:37;101061.88;;;-5.95;42.95
11172;BME280;5642;50.830;12.082;2022-12-18T04:43:01;101054.53;;;-6.03;43.47
11172;BME280;5642;50.830;12.082;2022-12-18T04:45:32;101048.41;;;-6.07;43.13
11172;BME280;5642;50.830;12.082;2022-12-18T04:48:06;101050.31;;;-6.03;42.76
11172;BME280;5642;50.830;12.082;2022-12-18T04:50:40;101059.84;;;-6.00;42.66
11172;BME280;5642;50.830;12.082;2022-12-18T04:53:08;101022.63;;;-6.24;43.25
11172;BME280;5642;50.830;12.082;2022-12-18T04:55:35;101057.50;;;-6.10;43.14
11172;BME280;5642;50.830;12.082;2022-12-18T04:58:02;101005.06;;;-6.48;43.04
11172;BME280;5642;50.830;12.082;2022-12-18T05:00:29;101016.69;;;-6.38;43.07
11172;BME280;5642;50.830;12.082;2022-12-18T05:03:00;101039.75;;;-6.37;43.23
11172;BME280;5642;50.830;12.082;2022-12-18T05:05:28;101062.75;;;-6.22;43.10
11172;BME280;5642;50.830;12.082;2022-12-18T05:07:55;101059.84;;;-6.28;43.08
11172;BME280;5642;50.830;12.082;2022-12-18T05:10:22;101080.50;;;-6.23;43.20
11172;BME280;5642;50.830;12.082;2022-12-18T05:12:49;101070.22;;;-6.25;42.59
11172;BME280;5642;50.830;12.082;2022-12-18T05:15:30;101067.59;;;-6.26;42.87
11172;BME280;5642;50.830;12.082;2022-12-18T05:18:00;101049.25;;;-6.34;43.02
11172;BME280;5642;50.830;12.082;2022-12-18T05:20:27;101080.34;;;-6.26;43.06
11172;BME280;5642;50.830;12.082;2022-12-18T05:22:55;101088.94;;;-6.24;43.07
11172;BME280;5642;50.830;12.082;2022-12-18T05:25:23;101088.38;;;-6.20;43.01
11172;BME280;5642;50.830;12.082;2022-12-18T05:27:50;101055.81;;;-6.38;42.79
11172;BME280;5642;50.830;12.082;2022-12-18T05:30:19;101073.66;;;-6.24;42.68
11172;BME280;5642;50.830;12.082;2022-12-18T05:32:49;101060.09;;;-6.23;42.94
11172;BME280;5642;50.830;12.082;2022-12-18T05:35:17;101073.63;;;-6.11;42.98
11172;BME280;5642;50.830;12.082;2022-12-18T05:37:44;101058.44;;;-6.23;43.05
11172;BME280;5642;50.830;12.082;2022-12-18T05:40:29;101090.25;;;-6.03;42.97
11172;BME280;5642;50.830;12.082;2022-12-18T05:42:56;101091.88;;;-6.05;42.73
11172;BME280;5642;50.830;12.082;2022-12-18T05:45:25;101100.78;;;-5.99;42.43
11172;BME280;5642;50.830;12.082;2022-12-18T05:47:51;101064.63;;;-6.19;42.67
11172;BME280;5642;50.830;12.082;2022-12-18T05:50:17;101036.03;;;-6.42;43.10
11172;BME280;5642;50.830;12.082;2022-12-18T05:52:44;101091.75;;;-6.07;42.58
11172;BME280;5642;50.830;12.082;2022-12-18T05:55:11;101091.94;;;-6.04;43.42
11172;BME280;5642;50.830;12.082;2022-12-18T05:57:39;101093.78;;;-6.01;43.13
11172;BME280;5642;50.830;12.082;2022-12-18T06:00:07;101061.28;;;-6.18;42.85
11172;BME280;5642;50.830;12.082;2022-12-18T06:02:36;101098.03;;;-6.02;42.61
11172;BME280;5642;50.830;12.082;2022-12-18T06:05:04;101090.69;;;-6.10;42.87
11172;BME280;5642;50.830;12.082;2022-12-18T06:07:32;101058.75;;;-6.32;43.15
11172;BME280;5642;50.830;12.082;2022-12-18T06:09:59;101092.16;;;-6.14;43.40
11172;BME280;5642;50.830;12.082;2022-12-18T06:12:29;101101.09;;;-6.07;42.92
11172;BME280;5642;50.830;12.082;2022-12-18T06:14:56;101101.97;;;-6.07;42.50
11172;BME280;5642;50.830;12.082;2022-12-18T06:17:30;101116.06;;;-5.99;42.82
11172;BME280;5642;50.830;12.082;2022-12-18T06:19:59;101098.31;;;-6.10;42.57
11172;BME280;5642;50.830;12.082;2022-12-18T06:22:38;101104.50;;;-6.07;42.78
11172;BME280;5642;50.830;12.082;2022-12-18T06:25:06;101123.91;;;-5.96;42.36
11172;BME280;5642;50.830;12.082;2022-12-18T06:27:33;101123.22;;;-5.93;42.38
11172;BME280;5642;50.830;12.082;2022-12-18T06:30:01;101114.31;;;-6.00;42.52
11172;BME280;5642;50.830;12.082;2022-12-18T06:32:28;101111.50;;;-6.04;42.50
11172;BME280;5642;50.830;12.082;2022-12-18T06:34:54;101120.28;;;-5.99;42.89
11172;BME280;5642;50.830;12.082;2022-12-18T06:37:22;101120.41;;;-5.98;42.65
11172;BME280;5642;50.830;12.082;2022-12-18T06:39:56;101124.50;;;-6.00;43.07
11172;BME280;5642;50.830;12.082;2022-12-18T06:42:25;101127.94;;;-5.99;42.77
11172;BME280;5642;50.830;12.082;2022-12-18T06:45:10;101074.25;;;-6.28;42.73
11172;BME280;5642;50.830;12.082;2022-12-18T06:47:37;101090.91;;;-6.20;43.20
11172;BME280;5642;50.830;12.082;2022-12-18T06:50:04;101108.53;;;-6.10;42.83
11172;BME280;5642;50.830;12.082;2022-12-18T06:52:33;101126.44;;;-5.96;42.68
11172;BME280;5642;50.830;12.082;2022-12-18T06:55:03;101126.75;;;-5.91;42.86
11172;BME280;5642;50.830;12.082;2022-12-18T06:57:30;101116.25;;;-5.96;42.76
11172;BME280;5642;50.830;12.082;2022-12-18T07:00:00;101118.38;;;-5.88;42.49
11172;BME280;5642;50.830;12.082;2022-12-18T07:02:27;101124.53;;;-5.85;42.97
11172;BME280;5642;50.830;12.082;2022-12-18T07:04:55;101116.53;;;-5.91;42.39
11172;BME280;5642;50.830;12.082;2022-12-18T07:07:40;101116.25;;;-5.96;42.45
11172;BME280;5642;50.830;12.082;2022-12-18T07:10:08;101105.50;;;-6.05;42.66
11172;BME280;5642;50.830;12.082;2022-12-18T07:12:38;101122.66;;;-6.02;42.56
11172;BME280;5642;50.830;12.082;2022-12-18T07:15:05;101086.69;;;-6.20;42.78
11172;BME280;5642;50.830;12.082;2022-12-18T07:17:34;101091.66;;;-6.08;42.79
11172;BME280;5642;50.830;12.082;2022-12-18T07:20:00;101120.88;;;-5.90;42.83
11172;BME280;5642;50.830;12.082;2022-12-18T07:22:32;101110.09;;;-5.99;42.64
11172;BME280;5642;50.830;12.082;2022-12-18T07:24:58;101094.47;;;-6.04;42.70
11172;BME280;5642;50.830;12.082;2022-12-18T07:27:27;101111.63;;;-5.88;42.71
11172;BME280;5642;50.830;12.082;2022-12-18T07:29:54;101129.31;;;-5.76;42.75
11172;BME280;5642;50.830;12.082;2022-12-18T07:32:22;101104.84;;;-5.87;42.43
11172;BME280;5642;50.830;12.082;2022-12-18T07:34:51;101132.72;;;-5.63;42.70
11172;BME280;5642;50.830;12.082;2022-12-18T07:37:17;101133.75;;;-5.59;42.56
11172;BME280;5642;50.830;12.082;2022-12-18T07:39:44;101140.09;;;-5.53;42.99
11172;BME280;5642;50.830;12.082;2022-12-18T07:42:32;101122.97;;;-5.55;42.41
11172;BME280;5642;50.830;12.082;2022-12-18T07:44:59;101131.13;;;-5.46;42.97
11172;BME280;5642;50.830;12.082;2022-12-18T07:47:28;101133.91;;;-5.43;42.80
11172;BME280;5642;50.830;12.082;2022-12-18T07:49:55;101121.91;;;-5.44;42.98
11172;BME280;5642;50.830;12.082;2022-12-18T07:52:23;101101.81;;;-5.53;42.44
11172;BME280;5642;50.830;12.082;2022-12-18T07:55:02;101128.09;;;-5.40;42.88
11172;BME280;5642;50.830;12.082;2022-12-18T07:57:30;101138.94;;;-5.30;42.50
11172;BME280;5642;50.830;12.082;2022-12-18T07:59:57;101143.41;;;-5.26;42.44
11172;BME280;5642;50.830;12.082;2022-12-18T08:02:24;101150.59;;;-5.20;42.76
11172;BME280;5642;50.830;12.082;2022-12-18T08:04:51;101158.59;;;-5.14;42.78
11172;BME280;5642;50.830;12.082;2022-12-18T08:07:18;101138.41;;;-5.24;42.79
11172;BME280;5642;50.830;12.082;2022-12-18T08:09:44;101164.84;;;-5.09;42.92
11172;BME280;5642;50.830;12.082;2022-12-18T08:12:11;101173.50;;;-5.07;42.92
11172;BME280;5642;50.830;12.082;2022-12-18T08:14:38;101179.41;;;-5.08;43.10
11172;BME280;5642;50.830;12.082;2022-12-18T08:17:05;101186.53;;;-5.02;43.24
11172;BME280;5642;50.830;12.082;2022-12-18T08:19:33;101183.63;;;-4.94;43.43
11172;BME280;5642;50.830;12.082;2022-12-18T08:21:59;101180.66;;;-4.87;43.33
11172;BME280;5642;50.830;12.082;2022-12-18T08:24:26;101186.91;;;-4.82;42.70
11172;BME280;5642;50.830;12.082;2022-12-18T08:26:57;101177.66;;;-4.80;43.61
11172;BME280;5642;50.830;12.082;2022-12-18T08:29:23;101171.91;;;-4.76;42.95
11172;BME280;5642;50.830;12.082;2022-12-18T08:31:50;101174.56;;;-4.74;43.03
11172;BME280;5642;50.830;12.082;2022-12-18T08:34:18;101153.50;;;-4.85;43.32
11172;BME280;5642;50.830;12.082;2022-12-18T08:36:45;101161.53;;;-4.79;43.19
11172;BME280;5642;50.830;12.082;2022-12-18T08:39:22;101172.63;;;-4.63;43.58
11172;BME280;5642;50.830;12.082;2022-12-18T08:41:49;101162.56;;;-4.60;43.29
11172;BME280;5642;50.830;12.082;2022-12-18T08:44:35;101166.09;;;-4.58;43.01
11172;BME280;5642;50.830;12.082;2022-12-18T08:47:07;101153.22;;;-4.60;43.60
11172;BME280;5642;50.830;12.082;2022-12-18T08:49:37;101170.13;;;-4.47;43.12
11172;BME280;5642;50.830;12.082;2022-12-18T08:52:04;101164.75;;;-4.37;43.19
11172;BME280;5642;50.830;12.082;2022-12-18T08:54:35;101162.63;;;-4.29;43.19
11172;BME280;5642;50.830;12.082;2022-12-18T08:57:07;101158.91;;;-4.20;43.40
11172;BME280;5642;50.830;12.082;2022-12-18T08:59:37;101149.69;;;-4.16;43.34
11172;BME280;5642;50.830;12.082;2022-12-18T09:02:03;101155.66;;;-4.01;43.17
11172;BME280;5642;50.830;12.082;2022-12-18T09:04:30;101149.50;;;-3.88;43.37
11172;BME280;5642;50.830;12.082;2022-12-18T09:06:56;101122.09;;;-3.91;43.14
11172;BME280;5642;50.830;12.082;2022-12-18T09:09:22;101145.63;;;-3.66;42.67
11172;BME280;5642;50.830;12.082;2022-12-18T09:11:48;101127.19;;;-3.75;43.14
11172;BME280;5642;50.830;12.082;2022-12-18T09:14:14;101141.03;;;-3.55;43.19
11172;BME280;5642;50.830;12.082;2022-12-18T09:16:43;101144.88;;;-3.47;43.18
11172;BME280;5642;50.830;12.082;2022-12-18T09:19:10;101142.31;;;-3.47;43.29
11172;BME280;5642;50.830;12.082;2022-12-18T09:21:40;101102.25;;;-3.63;43.26
11172;BME280;5642;50.830;12.082;2022-12-18T09:24:11;101148.34;;;-3.30;43.14
11172;BME280;5642;50.830;12.082;2022-12-18T09:26:38;101138.38;;;-3.24;43.59
11172;BME280;5642;50.830;12.082;2022-12-18T09:29:05;101142.13;;;-3.18;43.61
11172;BME280;5642;50.830;12.082;2022-12-18T09:31:33;101107.72;;;-3.23;43.74
11172;BME280;5642;50.830;12.082;2022-12-18T09:33:59;101126.81;;;-3.00;43.43
11172;BME280;5642;50.830;12.082;2022-12-18T09:36:26;101112.53;;;-2.95;43.25
11172;BME280;5642;50.830;12.082;2022-12-18T09:38:52;101135.00;;;-2.73;43.24
11172;BME280;5642;50.830;12.082;2022-12-18T09:41:53;101126.50;;;-2.54;43.65
11172;BME280;5642;50.830;12.082;2022-12-18T09:44:27;101120.28;;;-2.42;43.48
11172;BME280;5642;50.830;12.082;2022-12-18T09:47:09;101111.59;;;-2.26;43.35
11172;BME280;5642;50.830;12.082;2022-12-18T09:49:42;101108.78;;;-2.13;43.45
11172;BME280;5642;50.830;12.082;2022-12-18T09:52:14;101084.00;;;-2.12;43.37
11172;BME280;5642;50.830;12.082;2022-12-18T09:54:42;101096.34;;;-1.86;43.32
11172;BME280;5642;50.830;12.082;2022-12-18T09:57:14;101080.25;;;-1.82;43.28
11172;BME280;5642;50.830;12.082;2022-12-18T09:59:42;101082.69;;;-1.66;43.17
11172;BME280;5642;50.830;12.082;2022-12-18T10:02:30;101047.53;;;-1.67;43.30
11172;BME280;5642;50.830;12.082;2022-12-18T10:05:26;101067.31;;;-1.45;43.52
11172;BME280;5642;50.830;12.082;2022-12-18T10:08:03;101047.31;;;-1.52;43.47
11172;BME280;5642;50.830;12.082;2022-12-18T10:10:32;101064.44;;;-1.32;43.31
11172;BME280;5642;50.830;12.082;2022-12-18T10:18:55;101055.81;;;-1.13;43.70
11172;BME280;5642;50.830;12.082;2022-12-18T10:21:13;101056.94;;;-1.06;43.71
11172;BME280;5642;50.830;12.082;2022-12-18T10:24:15;101062.47;;;-0.97;43.50
11172;BME280;5642;50.830;12.082;2022-12-18T10:26:42;101063.66;;;-0.89;43.79
11172;BME280;5642;50.830;12.082;2022-12-18T10:29:13;101051.16;;;-0.37;44.43
11172;BME280;5642;50.830;12.082;2022-12-18T10:31:59;101055.97;;;0.97;45.85
11172;BME280;5642;50.830;12.082;2022-12-18T10:34:28;101036.88;;;2.32;47.28
11172;BME280;5642;50.830;12.082;2022-12-18T10:36:54;101015.38;;;3.75;47.79
11172;BME280;5642;50.830;12.082;2022-12-18T10:39:23;101020.00;;;5.31;48.25
11172;BME280;5642;50.830;12.082;2022-12-18T10:41:52;101007.97;;;6.77;48.29
11172;BME280;5642;50.830;12.082;2022-12-18T10:44:34;100988.00;;;8.21;48.43
11172;BME280;5642;50.830;12.082;2022-12-18T10:47:06;100986.38;;;9.49;48.43
11172;BME280;5642;50.830;12.082;2022-12-18T10:49:47;100986.09;;;10.37;47.88
11172;BME280;5642;50.830;12.082;2022-12-18T10:52:19;100965.50;;;11.03;47.35
11172;BME280;5642;50.830;12.082;2022-12-18T10:55:03;100942.31;;;11.49;47.27
11172;BME280;5642;50.830;12.082;2022-12-18T10:57:38;100967.69;;;12.22;47.24
11172;BME280;5642;50.830;12.082;2022-12-18T11:00:28;100971.88;;;12.93;47.25
11172;BME280;5642;50.830;12.082;2022-12-18T11:02:56;100970.16;;;13.43;47.07
11172;BME280;5642;50.830;12.082;2022-12-18T11:05:33;100960.78;;;13.76;46.63
11172;BME280;5642;50.830;12.082;2022-12-18T11:08:00;100971.44;;;14.11;46.87
11172;BME280;5642;50.830;12.082;2022-12-18T11:10:35;100976.22;;;14.34;46.81
11172;BME280;5642;50.830;12.082;2022-12-18T11:13:21;100977.44;;;14.60;46.50
11172;BME280;5642;50.830;12.082;2022-12-18T11:15:48;100969.13;;;14.76;46.71
11172;BME280;5642;50.830;12.082;2022-12-18T11:18:45;100972.34;;;14.89;46.49
11172;BME280;5642;50.830;12.082;2022-12-18T11:21:12;100984.59;;;14.92;46.21
11172;BME280;5642;50.830;12.082;2022-12-18T11:23:53;100980.31;;;14.86;45.58
11172;BME280;5642;50.830;12.082;2022-12-18T11:26:20;100970.06;;;14.74;45.51
11172;BME280;5642;50.830;12.082;2022-12-18T11:28:51;100964.41;;;14.52;45.00
11172;BME280;5642;50.830;12.082;2022-12-18T11:31:29;100986.16;;;14.22;44.52
11172;BME280;5642;50.830;12.082;2022-12-18T11:34:10;100981.72;;;13.82;44.35
11172;BME280;5642;50.830;12.082;2022-12-18T11:36:41;100982.38;;;13.47;43.85
11172;BME280;5642;50.830;12.082;2022-12-18T11:42:05;100966.31;;;12.58;42.64
11172;BME280;5642;50.830;12.082;2022-12-18T11:50:23;100979.59;;;10.91;42.29
11172;BME280;5642;50.830;12.082;2022-12-18T11:52:51;100982.56;;;10.38;42.23
11172;BME280;5642;50.830;12.082;2022-12-18T11:55:45;100985.41;;;9.85;42.26
11172;BME280;5642;50.830;12.082;2022-12-18T12:16:15;100971.22;;;6.45;43.24
11172;BME280;5642;50.830;12.082;2022-12-18T12:22:14;100949.81;;;5.93;43.00
11172;BME280;5642;50.830;12.082;2022-12-18T12:25:04;100939.94;;;5.66;43.12
11172;BME280;5642;50.830;12.082;2022-12-18T12:28:02;100951.03;;;5.55;43.34
11172;BME280;5642;50.830;12.082;2022-12-18T12:30:50;100934.44;;;5.45;43.24
11172;BME280;5642;50.830;12.082;2022-12-18T12:38:55;100944.56;;;5.25;43.20
11172;BME280;5642;50.830;12.082;2022-12-18T12:41:33;100932.41;;;5.23;42.85
11172;BME280;5642;50.830;12.082;2022-12-18T12:44:27;100933.22;;;5.20;42.77
11172;BME280;5642;50.830;12.082;2022-12-18T12:46:59;100916.59;;;5.07;42.87
11172;BME280;5642;50.830;12.082;2022-12-18T12:49:29;100942.66;;;5.13;42.77
11172;BME280;5642;50.830;12.082;2022-12-18T12:52:07;100939.22;;;5.15;42.98
11172;BME280;5642;50.830;12.082;2022-12-18T12:54:37;100939.25;;;5.19;42.73
11172;BME280;5642;50.830;12.082;2022-12-18T13:02:31;100941.78;;;5.13;43.00
11172;BME280;5642;50.830;12.082;2022-12-18T13:07:54;100933.75;;;4.96;42.89
11172;BME280;5642;50.830;12.082;2022-12-18T13:10:26;100931.84;;;4.86;42.73
11172;BME280;5642;50.830;12.082;2022-12-18T13:15:30;100936.69;;;4.65;42.44
11172;BME280;5642;50.830;12.082;2022-12-18T13:20:39;100933.59;;;4.36;42.93
11172;BME280;5642;50.830;12.082;2022-12-18T13:34:18;100931.59;;;3.76;42.79
11172;BME280;5642;50.830;12.082;2022-12-18T13:36:44;100920.16;;;3.67;42.69
11172;BME280;5642;50.830;12.082;2022-12-18T13:41:41;100908.78;;;3.59;42.50
11172;BME280;5642;50.830;12.082;2022-12-18T13:46:58;100880.59;;;3.32;43.02
11172;BME280;5642;50.830;12.082;2022-12-18T13:49:38;100908.25;;;3.33;42.42
11172;BME280;5642;50.830;12.082;2022-12-18T13:52:23;100903.78;;;3.26;42.54
11172;BME280;5642;50.830;12.082;2022-12-18T13:54:53;100917.56;;;3.25;42.36
11172;BME280;5642;50.830;12.082;2022-12-18T13:57:33;100884.34;;;3.05;42.48
11172;BME280;5642;50.830;12.082;2022-12-18T14:02:50;100896.50;;;3.09;42.79
11172;BME280;5642;50.830;12.082;2022-12-18T14:05:29;100902.78;;;3.21;42.97
11172;BME280;5642;50.830;12.082;2022-12-18T14:08:01;100874.91;;;3.09;42.95
11172;BME280;5642;50.830;12.082;2022-12-18T14:10:29;100883.72;;;3.17;42.81
11172;BME280;5642;50.830;12.082;2022-12-18T14:12:56;100871.41;;;3.07;42.60
11172;BME280;5642;50.830;12.082;2022-12-18T14:18:09;100898.16;;;3.07;42.24
11172;BME280;5642;50.830;12.082;2022-12-18T14:20:44;100902.38;;;3.02;42.88
11172;BME280;5642;50.830;12.082;2022-12-18T14:23:30;100904.88;;;2.99;42.49
11172;BME280;5642;50.830;12.082;2022-12-18T14:25:58;100909.97;;;2.95;42.77
11172;BME280;5642;50.830;12.082;2022-12-18T14:28:24;100918.59;;;2.95;42.57
11172;BME280;5642;50.830;12.082;2022-12-18T14:30:52;100903.81;;;2.90;42.24
11172;BME280;5642;50.830;12.082;2022-12-18T14:33:21;100901.19;;;2.88;42.88
11172;BME280;5642;50.830;12.082;2022-12-18T14:36:13;100898.28;;;2.74;42.71
11172;BME280;5642;50.830;12.082;2022-12-18T14:38:40;100892.91;;;2.67;42.61
11172;BME280;5642;50.830;12.082;2022-12-18T14:41:18;100903.28;;;2.67;42.85
11172;BME280;5642;50.830;12.082;2022-12-18T14:43:53;100905.78;;;2.64;42.91
11172;BME280;5642;50.830;12.082;2022-12-18T14:46:34;100906.59;;;2.61;42.42
11172;BME280;5642;50.830;12.082;2022-12-18T14:52:00;100901.78;;;2.42;43.06
11172;BME280;5642;50.830;12.082;2022-12-18T14:54:28;100886.59;;;2.20;42.62
11172;BME280;5642;50.830;12.082;2022-12-18T14:59:30;100901.25;;;2.21;42.85
11172;BME280;5642;50.830;12.082;2022-12-18T15:02:02;100893.38;;;2.16;42.76
11172;BME280;5642;50.830;12.082;2022-12-18T15:04:33;100897.50;;;2.10;42.94
11172;BME280;5642;50.830;12.082;2022-12-18T15:09:35;100911.88;;;1.99;42.94
11172;BME280;5642;50.830;12.082;2022-12-18T15:12:04;100888.94;;;1.79;43.08
11172;BME280;5642;50.830;12.082;2022-12-18T15:14:46;100895.84;;;1.80;42.91
11172;BME280;5642;50.830;12.082;2022-12-18T15:17:27;100927.13;;;1.89;42.89
11172;BME280;5642;50.830;12.082;2022-12-18T15:20:13;100927.84;;;1.85;42.82
11172;BME280;5642;50.830;12.082;2022-12-18T15:22:48;100928.72;;;1.86;43.13
11172;BME280;5642;50.830;12.082;2022-12-18T15:25:31;100898.28;;;1.74;42.72
11172;BME280;5642;50.830;12.082;2022-12-18T15:28:00;100909.03;;;1.89;42.65
11172;BME280;5642;50.830;12.082;2022-12-18T15:30:29;100907.38;;;1.93;42.71
11172;BME280;5642;50.830;12.082;2022-12-18T15:33:22;100903.06;;;1.92;42.39
11172;BME280;5642;50.830;12.082;2022-12-18T15:36:03;100899.44;;;1.85;42.52
11172;BME280;5642;50.830;12.082;2022-12-18T15:38:35;100903.88;;;1.89;42.64
11172;BME280;5642;50.830;12.082;2022-12-18T15:41:08;100905.56;;;1.89;42.68
11172;BME280;5642;50.830;12.082;2022-12-18T15:43:37;100908.19;;;1.90;42.65
11172;BME280;5642;50.830;12.082;2022-12-18T15:48:42;100902.94;;;1.87;42.47
11172;BME280;5642;50.830;12.082;2022-12-18T15:51:14;100901.22;;;1.88;42.42
11172;BME280;5642;50.830;12.082;2022-12-18T15:53:47;100908.06;;;1.86;42.64
11172;BME280;5642;50.830;12.082;2022-12-18T15:56:20;100897.59;;;1.81;42.43
11172;BME280;5642;50.830;12.082;2022-12-18T15:59:24;100906.28;;;1.83;42.59
11172;BME280;5642;50.830;12.082;2022-12-18T16:01:51;100901.06;;;1.82;42.51
11172;BME280;5642;50.830;12.082;2022-12-18T16:04:20;100905.25;;;1.78;42.13
11172;BME280;5642;50.830;12.082;2022-12-18T16:06:47;100884.19;;;1.63;42.44
11172;BME280;5642;50.830;12.082;2022-12-18T16:09:16;100878.94;;;1.60;42.66
11172;BME280;5642;50.830;12.082;2022-12-18T16:11:44;100870.41;;;1.63;42.50
11172;BME280;5642;50.830;12.082;2022-12-18T16:14:23;100886.31;;;1.78;42.33
11172;BME280;5642;50.830;12.082;2022-12-18T16:17:01;100882.81;;;1.76;42.34
11172;BME280;5642;50.830;12.082;2022-12-18T16:19:32;100876.69;;;1.72;42.51
11172;BME280;5642;50.830;12.082;2022-12-18T16:21:59;100888.16;;;1.82;42.24
11172;BME280;5642;50.830;12.082;2022-12-18T16:24:34;100889.97;;;1.86;42.37